Time;durP1;ratioP1;P1;durP2;ratioP2;P2;SDS_P1;SDS_P2;PMS_P1;PMS_P2;Temp;Humidity;BMP_temperature;BMP_pressure;BME280_temperature;BME280_humidity;BME280_pressure;Samples;Min_cycle;Max_cycle;Signal;HPM_P1;HPM_P2
2021/08/18 00:02:08;;;;;;;6.65;3.60;;;19.00;57.20;;;;;;5051032;28;20064;-71
2021/08/18 00:04:39;;;;;;;5.15;2.92;;;19.00;57.50;;;;;;5050856;28;20032;-71
2021/08/18 00:07:05;;;;;;;4.43;2.80;;;19.00;57.60;;;;;;5034713;28;20032;-71
2021/08/18 00:09:31;;;;;;;6.22;2.70;;;18.90;57.40;;;;;;5034335;28;20376;-71
2021/08/18 00:11:56;;;;;;;5.13;3.13;;;18.90;57.80;;;;;;5034671;28;20539;-71
2021/08/18 00:14:31;;;;;;;4.55;2.70;;;18.90;57.70;;;;;;5052536;28;20025;-71
2021/08/18 00:17:25;;;;;;;10.15;2.90;;;18.90;57.80;;;;;;5055159;28;20048;-71
2021/08/18 00:19:51;;;;;;;9.03;3.40;;;18.90;57.90;;;;;;5044592;28;20106;-71
2021/08/18 00:22:22;;;;;;;5.40;3.03;;;18.90;57.90;;;;;;5052682;28;20052;-71
2021/08/18 00:24:53;;;;;;;4.90;2.75;;;18.80;58.10;;;;;;5052641;28;20040;-70
2021/08/18 00:27:21;;;;;;;3.90;2.65;;;18.80;58.00;;;;;;5045107;28;20056;-71
2021/08/18 00:29:50;;;;;;;5.32;3.15;;;18.80;58.00;;;;;;5044053;28;20096;-71
2021/08/18 00:32:17;;;;;;;7.03;3.70;;;18.70;58.00;;;;;;5040622;28;20028;-71
2021/08/18 00:34:45;;;;;;;5.32;3.05;;;18.70;58.10;;;;;;5052694;28;20021;-71
2021/08/18 00:37:11;;;;;;;5.80;3.25;;;18.70;58.30;;;;;;5046184;28;20022;-71
2021/08/18 00:39:37;;;;;;;4.50;3.05;;;18.60;58.20;;;;;;5024612;28;20482;-71
2021/08/18 00:42:06;;;;;;;5.60;3.40;;;18.60;58.20;;;;;;5052486;28;20055;-71
2021/08/18 00:44:33;;;;;;;6.20;3.15;;;18.60;58.20;;;;;;5051347;28;20035;-71
2021/08/18 00:46:59;;;;;;;4.72;3.00;;;18.60;58.30;;;;;;5037505;28;20100;-71
2021/08/18 00:49:26;;;;;;;6.13;3.28;;;18.60;58.30;;;;;;5037475;28;20436;-71
2021/08/18 00:51:57;;;;;;;5.47;3.28;;;18.60;58.50;;;;;;5037252;28;20029;-71
2021/08/18 00:54:23;;;;;;;5.40;3.15;;;18.60;58.50;;;;;;5056253;28;20024;-71
2021/08/18 00:56:50;;;;;;;5.80;3.35;;;18.50;58.50;;;;;;5038475;28;20024;-71
2021/08/18 00:59:16;;;;;;;5.47;3.45;;;18.60;58.70;;;;;;5055378;28;20044;-71
2021/08/18 01:01:45;;;;;;;8.15;3.10;;;18.60;58.90;;;;;;5036603;28;20056;-71
2021/08/18 01:10:59;;;;;;;3.85;3.20;;;18.50;59.10;;;;;;5043389;28;20775;-71
2021/08/18 01:13:28;;;;;;;5.05;3.05;;;18.50;59.20;;;;;;5065794;28;20079;-71
2021/08/18 01:15:53;;;;;;;5.45;3.42;;;18.50;59.20;;;;;;5046687;28;20039;-71
2021/08/18 01:18:19;;;;;;;4.43;3.03;;;18.50;59.10;;;;;;5049799;28;20029;-71
2021/08/18 01:20:45;;;;;;;5.18;3.58;;;18.50;59.20;;;;;;5038287;28;20029;-71
2021/08/18 01:23:13;;;;;;;5.43;3.22;;;18.50;59.20;;;;;;5055936;28;20041;-71
2021/08/18 01:25:41;;;;;;;7.32;3.53;;;18.50;59.40;;;;;;5038245;28;20025;-71
2021/08/18 01:28:07;;;;;;;5.85;3.13;;;18.50;59.60;;;;;;5056128;28;20028;-71
2021/08/18 01:30:35;;;;;;;5.38;3.08;;;18.50;59.50;;;;;;5055735;28;20029;-71
2021/08/18 01:33:05;;;;;;;4.70;3.28;;;18.40;59.10;;;;;;5056064;28;20021;-71
2021/08/18 01:35:37;;;;;;;6.55;3.40;;;18.50;59.20;;;;;;5038158;28;20025;-71
2021/08/18 01:38:06;;;;;;;4.20;2.88;;;18.50;59.50;;;;;;5055491;28;20033;-71
2021/08/18 01:40:32;;;;;;;5.05;3.03;;;18.40;59.40;;;;;;5037677;28;20033;-71
2021/08/18 01:42:59;;;;;;;7.88;3.22;;;18.40;59.40;;;;;;5037980;28;20472;-71
2021/08/18 01:45:28;;;;;;;5.30;3.22;;;18.50;59.90;;;;;;5055516;28;20026;-71
2021/08/18 01:47:54;;;;;;;5.78;3.10;;;18.40;59.10;;;;;;5055832;28;20028;-71
2021/08/18 01:50:20;;;;;;;6.43;2.97;;;18.50;59.10;;;;;;5045259;28;20017;-71
2021/08/18 01:52:50;;;;;;;4.63;3.20;;;18.50;59.10;;;;;;5063181;28;20426;-71
2021/08/18 01:55:16;;;;;;;7.10;3.05;;;18.50;59.20;;;;;;5055385;28;20025;-71
2021/08/18 01:57:43;;;;;;;3.97;3.15;;;18.50;59.00;;;;;;5055375;28;20151;-71
2021/08/18 02:00:09;;;;;;;4.22;2.67;;;18.50;58.90;;;;;;5037448;28;20418;-71
2021/08/18 02:02:35;;;;;;;3.67;2.85;;;18.50;58.60;;;;;;5024198;28;20050;-71
2021/08/18 02:05:01;;;;;;;4.80;3.20;;;18.50;58.50;;;;;;5015544;28;20484;-71
2021/08/18 02:07:27;;;;;;;7.28;3.25;;;18.50;58.50;;;;;;5014233;28;20030;-71
2021/08/18 02:09:53;;;;;;;5.90;3.45;;;18.50;58.60;;;;;;5015254;28;20476;-71
2021/08/18 02:12:19;;;;;;;6.03;3.05;;;18.40;58.80;;;;;;5015236;28;20034;-71
2021/08/18 02:14:45;;;;;;;5.00;2.88;;;18.40;58.70;;;;;;5015083;28;20033;-71
2021/08/18 02:17:11;;;;;;;14.15;3.38;;;18.40;58.70;;;;;;5015358;28;20032;-71
2021/08/18 02:19:37;;;;;;;6.80;3.50;;;18.40;58.90;;;;;;5014007;28;20049;-71
2021/08/18 02:22:03;;;;;;;4.72;3.10;;;18.40;58.80;;;;;;5014903;28;20420;-71
2021/08/18 02:24:29;;;;;;;4.18;2.88;;;18.40;58.80;;;;;;5015110;28;20029;-72
2021/08/18 02:26:55;;;;;;;6.00;3.05;;;18.40;58.90;;;;;;4994094;28;20033;-71
2021/08/18 02:29:20;;;;;;;4.38;2.83;;;18.40;58.90;;;;;;4995273;28;20366;-71
2021/08/18 02:31:46;;;;;;;3.53;2.47;;;18.40;58.90;;;;;;4995173;28;20389;-71
2021/08/18 02:34:12;;;;;;;4.65;3.22;;;18.40;59.10;;;;;;4995440;28;20030;-71
2021/08/18 02:36:39;;;;;;;8.52;3.83;;;18.40;59.20;;;;;;4995022;28;20027;-71
2021/08/18 02:39:06;;;;;;;3.90;3.00;;;18.40;59.20;;;;;;4995349;28;20113;-71
2021/08/18 02:41:32;;;;;;;4.20;3.05;;;18.40;59.40;;;;;;4995242;28;20117;-71
2021/08/18 02:43:59;;;;;;;4.72;3.00;;;18.40;59.40;;;;;;5013314;28;20429;-71
2021/08/18 02:46:25;;;;;;;5.10;3.25;;;18.40;59.40;;;;;;5015050;28;20469;-71
2021/08/18 02:48:53;;;;;;;5.65;3.00;;;18.40;59.50;;;;;;5014412;28;20492;-71
2021/08/18 02:51:19;;;;;;;6.30;3.95;;;18.40;59.40;;;;;;4997376;28;20034;-71
2021/08/18 02:53:47;;;;;;;3.88;2.60;;;18.40;59.40;;;;;;5014654;28;20026;-71
2021/08/18 02:56:13;;;;;;;3.92;2.67;;;18.40;59.50;;;;;;5014376;28;20033;-72
2021/08/18 02:58:39;;;;;;;6.82;2.80;;;18.40;59.50;;;;;;5014106;28;20026;-72
2021/08/18 03:01:05;;;;;;;6.50;3.80;;;18.40;59.40;;;;;;4995285;28;20498;-71
2021/08/18 03:03:31;;;;;;;6.90;3.70;;;18.40;59.70;;;;;;5029895;28;20136;-72
2021/08/18 03:06:00;;;;;;;5.43;2.80;;;18.40;59.80;;;;;;5032018;28;20384;-72
2021/08/18 03:08:26;;;;;;;7.65;3.08;;;18.40;59.80;;;;;;5033364;28;20377;-71
2021/08/18 03:10:51;;;;;;;8.38;3.72;;;18.40;59.90;;;;;;5033873;28;20029;-72
2021/08/18 03:13:17;;;;;;;4.70;2.70;;;18.40;59.80;;;;;;5034304;28;20436;-72
2021/08/18 03:15:43;;;;;;;4.20;2.78;;;18.40;59.70;;;;;;5034046;28;20091;-72
2021/08/18 03:18:09;;;;;;;5.75;3.45;;;18.40;59.70;;;;;;5032911;28;20040;-72
2021/08/18 03:20:35;;;;;;;3.95;3.10;;;18.40;59.90;;;;;;5034091;28;20033;-72
2021/08/18 03:23:04;;;;;;;5.72;3.00;;;18.40;59.90;;;;;;5031211;28;20061;-71
2021/08/18 03:25:30;;;;;;;7.53;3.45;;;18.40;59.90;;;;;;5014612;28;20080;-72
2021/08/18 03:27:55;;;;;;;6.32;3.70;;;18.40;60.20;;;;;;5014333;28;20034;-72
2021/08/18 03:30:24;;;;;;;5.63;3.55;;;18.40;60.10;;;;;;5014191;28;20032;-71
2021/08/18 03:32:50;;;;;;;4.45;3.47;;;18.40;60.20;;;;;;5012990;28;20033;-72
2021/08/18 03:35:16;;;;;;;4.95;3.53;;;18.40;60.20;;;;;;5012880;28;20357;-71
2021/08/18 03:37:44;;;;;;;4.03;2.95;;;18.40;60.10;;;;;;5013935;28;20037;-71
2021/08/18 03:40:11;;;;;;;6.13;3.58;;;18.40;60.30;;;;;;5013809;28;20030;-71
2021/08/18 03:42:36;;;;;;;4.90;3.10;;;18.40;60.40;;;;;;5012389;28;20040;-71
2021/08/18 03:45:03;;;;;;;5.28;2.88;;;18.40;60.30;;;;;;5014103;28;20022;-71
2021/08/18 03:47:29;;;;;;;5.07;2.95;;;18.40;60.30;;;;;;5016251;28;20123;-71
2021/08/18 03:50:00;;;;;;;5.18;3.60;;;18.40;60.40;;;;;;5021776;28;20038;-72
2021/08/18 03:52:26;;;;;;;9.25;3.72;;;18.50;60.40;;;;;;5012793;28;20065;-71
2021/08/18 03:54:52;;;;;;;5.10;3.45;;;18.50;60.50;;;;;;5013959;28;20089;-72
2021/08/18 03:57:18;;;;;;;5.25;3.88;;;18.50;60.70;;;;;;5013564;28;20030;-72
2021/08/18 03:59:44;;;;;;;9.80;4.15;;;18.50;60.50;;;;;;5012522;28;20469;-71
2021/08/18 04:02:10;;;;;;;7.18;3.72;;;18.50;60.40;;;;;;5025219;28;20064;-72
2021/08/18 04:04:35;;;;;;;7.88;3.70;;;18.50;60.50;;;;;;5035525;28;20025;-71
2021/08/18 04:07:01;;;;;;;5.30;3.78;;;18.50;60.50;;;;;;5053101;28;20461;-72
2021/08/18 04:09:29;;;;;;;8.40;4.05;;;18.50;60.40;;;;;;5053035;28;20029;-71
2021/08/18 04:11:55;;;;;;;5.97;3.70;;;18.50;60.40;;;;;;5053303;28;20104;-72
2021/08/18 04:14:21;;;;;;;4.20;3.05;;;18.50;60.30;;;;;;5052913;28;20108;-70
2021/08/18 04:16:47;;;;;;;10.15;3.72;;;18.50;60.20;;;;;;5052920;28;20052;-70
2021/08/18 04:19:12;;;;;;;5.07;3.17;;;18.50;60.40;;;;;;5053230;28;20052;-69
2021/08/18 04:21:38;;;;;;;6.20;3.70;;;18.50;60.30;;;;;;5053079;28;20029;-70
2021/08/18 04:24:04;;;;;;;12.43;3.85;;;18.50;60.30;;;;;;5056419;28;20468;-70
2021/08/18 04:26:30;;;;;;;6.22;3.45;;;18.60;60.20;;;;;;5041141;28;20028;-70
2021/08/18 04:28:56;;;;;;;5.30;3.35;;;18.60;60.10;;;;;;5070353;28;20029;-70
2021/08/18 04:31:23;;;;;;;4.50;3.35;;;18.60;60.00;;;;;;5039193;28;20065;-70
2021/08/18 04:33:48;;;;;;;5.22;3.90;;;18.60;60.00;;;;;;5057140;28;20057;-70
2021/08/18 04:36:15;;;;;;;7.38;3.58;;;18.60;60.00;;;;;;5056888;28;20071;-70
2021/08/18 04:38:41;;;;;;;5.72;3.42;;;18.60;59.90;;;;;;5057403;28;20108;-70
2021/08/18 04:41:07;;;;;;;6.07;3.53;;;18.60;60.00;;;;;;5057152;28;20036;-71
2021/08/18 04:43:33;;;;;;;7.25;3.97;;;18.60;59.70;;;;;;5056937;28;20029;-70
2021/08/18 04:45:59;;;;;;;7.28;3.90;;;18.60;59.70;;;;;;5038899;28;20475;-71
2021/08/18 04:48:24;;;;;;;5.68;3.78;;;18.70;59.70;;;;;;5056811;28;20103;-71
2021/08/18 04:50:50;;;;;;;5.35;3.78;;;18.60;59.80;;;;;;5056569;28;20476;-71
2021/08/18 04:53:16;;;;;;;8.05;4.35;;;18.60;59.70;;;;;;5038843;28;20029;-71
2021/08/18 04:55:42;;;;;;;7.55;4.35;;;18.70;59.70;;;;;;5040910;28;20110;-71
2021/08/18 04:58:08;;;;;;;6.45;4.57;;;18.60;59.60;;;;;;5076716;28;20025;-71
2021/08/18 05:00:36;;;;;;;5.60;4.05;;;18.70;59.70;;;;;;5057642;28;20053;-71
2021/08/18 05:03:02;;;;;;;7.88;4.30;;;18.70;59.60;;;;;;5055393;28;20053;-71
2021/08/18 05:05:30;;;;;;;5.88;3.78;;;18.70;59.60;;;;;;5038006;28;20341;-71
2021/08/18 05:07:58;;;;;;;5.57;3.72;;;18.70;59.60;;;;;;5055528;28;20021;-71
2021/08/18 05:10:25;;;;;;;8.60;4.38;;;18.70;59.60;;;;;;5038494;28;20029;-71
2021/08/18 05:12:50;;;;;;;7.50;4.22;;;18.70;59.60;;;;;;5037887;28;20059;-71
2021/08/18 05:15:16;;;;;;;5.78;3.75;;;18.70;59.60;;;;;;5056235;28;20100;-70
2021/08/18 05:17:44;;;;;;;7.65;4.00;;;18.70;59.50;;;;;;5038234;28;20029;-70
2021/08/18 05:20:10;;;;;;;9.73;4.05;;;18.80;59.50;;;;;;5056144;28;20018;-71
2021/08/18 05:22:39;;;;;;;6.05;3.90;;;18.80;59.40;;;;;;5056041;28;20040;-71
2021/08/18 05:25:05;;;;;;;11.02;4.60;;;18.80;59.30;;;;;;5056040;28;20054;-71
2021/08/18 05:27:30;;;;;;;6.93;4.30;;;18.80;59.30;;;;;;5071699;28;20441;-71
2021/08/18 05:29:56;;;;;;;6.35;4.00;;;18.90;59.30;;;;;;5076258;28;20033;-71
2021/08/18 05:32:22;;;;;;;9.02;4.32;;;18.90;59.50;;;;;;5076335;28;20028;-71
2021/08/18 05:34:50;;;;;;;12.02;4.28;;;18.90;59.30;;;;;;5075420;28;20021;-72
2021/08/18 05:37:16;;;;;;;7.22;4.82;;;18.90;59.30;;;;;;5057617;28;20028;-71
2021/08/18 05:39:42;;;;;;;7.88;4.45;;;19.00;59.30;;;;;;5075766;28;20379;-71
2021/08/18 05:42:08;;;;;;;7.05;4.03;;;19.00;59.40;;;;;;5057619;28;20101;-71
2021/08/18 05:44:36;;;;;;;9.98;4.75;;;19.10;59.50;;;;;;5068919;28;20033;-71
2021/08/18 05:47:02;;;;;;;6.82;4.22;;;19.10;60.00;;;;;;5037719;28;20414;-70
2021/08/18 05:49:30;;;;;;;6.88;4.22;;;19.30;59.40;;;;;;5055520;28;20163;-71
2021/08/18 05:51:56;;;;;;;5.03;3.65;;;19.30;59.20;;;;;;5055327;28;20040;-71
2021/08/18 05:54:25;;;;;;;9.55;4.60;;;19.40;59.10;;;;;;5055480;28;20025;-72
2021/08/18 05:56:53;;;;;;;6.55;4.00;;;19.50;58.80;;;;;;5050314;28;20039;-72
2021/08/18 05:59:19;;;;;;;6.32;3.97;;;19.60;58.20;;;;;;5045840;28;20149;-72
2021/08/18 06:01:45;;;;;;;7.70;4.68;;;19.60;57.80;;;;;;5048595;28;20557;-72
2021/08/18 06:04:11;;;;;;;8.70;4.10;;;19.60;57.50;;;;;;5055424;28;20028;-71
2021/08/18 06:06:37;;;;;;;6.28;3.97;;;19.60;57.50;;;;;;5037358;28;20033;-71
2021/08/18 06:09:03;;;;;;;8.00;4.40;;;19.60;57.20;;;;;;5054783;28;20049;-71
2021/08/18 06:11:29;;;;;;;6.57;4.10;;;19.60;57.00;;;;;;5069322;28;20042;-71
2021/08/18 06:13:55;;;;;;;6.55;4.22;;;19.60;57.20;;;;;;5075155;28;20448;-71
2021/08/18 06:16:21;;;;;;;12.70;4.50;;;19.60;57.10;;;;;;5057118;28;20463;-71
2021/08/18 06:18:48;;;;;;;9.35;4.63;;;19.60;57.20;;;;;;5042597;28;20037;-71
2021/08/18 06:21:14;;;;;;;7.85;5.13;;;19.70;57.10;;;;;;5054243;28;20518;-71
2021/08/18 06:23:40;;;;;;;7.00;4.30;;;19.70;57.00;;;;;;5037021;28;20353;-71
2021/08/18 06:26:06;;;;;;;8.18;4.78;;;19.80;57.00;;;;;;5036890;28;20029;-71
2021/08/18 06:28:34;;;;;;;7.57;4.55;;;19.90;56.90;;;;;;5036946;28;20032;-71
2021/08/18 06:31:00;;;;;;;10.48;4.63;;;19.90;56.50;;;;;;5054931;28;20033;-71
2021/08/18 06:33:26;;;;;;;9.15;4.82;;;20.00;56.40;;;;;;5054516;28;20027;-71
2021/08/18 06:35:52;;;;;;;7.13;4.55;;;20.00;56.30;;;;;;5054410;28;20020;-71
2021/08/18 06:38:18;;;;;;;8.10;4.45;;;20.00;55.80;;;;;;5036729;28;20472;-71
2021/08/18 06:40:46;;;;;;;7.50;4.43;;;20.10;56.00;;;;;;5036527;28;20033;-71
2021/08/18 06:43:14;;;;;;;7.20;4.55;;;20.10;55.90;;;;;;5054752;28;20032;-71
2021/08/18 06:45:40;;;;;;;8.35;4.55;;;20.10;55.80;;;;;;5053677;28;20025;-71
2021/08/18 06:48:06;;;;;;;7.88;4.40;;;20.20;56.00;;;;;;5054415;28;20452;-71
2021/08/18 06:50:32;;;;;;;11.43;4.70;;;20.20;55.90;;;;;;5036533;28;20479;-71
2021/08/18 06:52:58;;;;;;;6.50;4.15;;;20.30;55.70;;;;;;5053000;28;20025;-71
2021/08/18 06:55:23;;;;;;;8.52;5.07;;;20.30;55.60;;;;;;5036423;28;20067;-71
2021/08/18 06:57:49;;;;;;;7.43;4.82;;;20.40;54.90;;;;;;5054588;28;20025;-71
2021/08/18 07:00:35;;;;;;;9.07;4.90;;;20.50;55.10;;;;;;5035184;28;20372;-71
2021/08/18 07:03:01;;;;;;;9.05;5.00;;;20.50;54.90;;;;;;5048545;28;20056;-71
2021/08/18 07:05:32;;;;;;;7.72;4.82;;;20.60;54.60;;;;;;5053430;28;20381;-71
2021/08/18 07:08:01;;;;;;;8.68;5.10;;;20.60;54.60;;;;;;5035103;28;20025;-71
2021/08/18 07:10:27;;;;;;;8.65;4.35;;;20.70;54.30;;;;;;5035764;28;20060;-70
2021/08/18 07:12:55;;;;;;;8.00;4.30;;;20.70;54.50;;;;;;5036094;28;20537;-70
2021/08/18 07:15:21;;;;;;;9.50;4.68;;;20.80;54.50;;;;;;5036007;28;20029;-70
2021/08/18 07:17:47;;;;;;;6.45;4.28;;;21.00;54.30;;;;;;5053545;28;20032;-70
2021/08/18 07:20:14;;;;;;;7.03;4.22;;;21.10;54.10;;;;;;5053755;28;20037;-70
2021/08/18 07:22:42;;;;;;;9.27;4.40;;;21.10;53.80;;;;;;5053543;28;20037;-70
2021/08/18 07:25:08;;;;;;;7.55;4.50;;;21.30;53.50;;;;;;5035665;28;20021;-70
2021/08/18 07:27:34;;;;;;;7.57;4.85;;;21.40;53.50;;;;;;5035721;28;20159;-70
2021/08/18 07:30:00;;;;;;;6.90;4.85;;;21.40;53.40;;;;;;5053368;28;20108;-71
2021/08/18 07:32:26;;;;;;;6.10;4.78;;;21.50;53.10;;;;;;5053401;28;20033;-70
2021/08/18 07:34:54;;;;;;;9.57;5.68;;;21.60;52.70;;;;;;5053649;28;20035;-70
2021/08/18 07:37:22;;;;;;;7.10;4.82;;;21.70;52.20;;;;;;5053308;28;20063;-70
2021/08/18 07:39:47;;;;;;;10.00;5.35;;;21.70;52.20;;;;;;5053420;28;20027;-70
2021/08/18 07:42:14;;;;;;;8.15;4.97;;;21.80;52.20;;;;;;5052921;28;20038;-70
2021/08/18 07:44:41;;;;;;;7.60;4.43;;;21.90;51.90;;;;;;5053451;28;20060;-70
2021/08/18 07:47:09;;;;;;;7.22;4.57;;;21.90;51.90;;;;;;5035464;28;20122;-70
2021/08/18 07:49:37;;;;;;;8.32;5.45;;;22.00;51.60;;;;;;5053037;28;20364;-70
2021/08/18 07:52:06;;;;;;;9.38;4.90;;;22.00;51.60;;;;;;5019343;28;20091;-70
2021/08/18 07:54:32;;;;;;;8.75;4.93;;;22.00;51.60;;;;;;5053245;28;20468;-71
2021/08/18 07:57:01;;;;;;;8.20;4.53;;;21.90;51.70;;;;;;5053048;28;20028;-71
2021/08/18 07:59:30;;;;;;;9.95;4.53;;;21.90;51.90;;;;;;5035324;28;20025;-71
2021/08/18 08:01:59;;;;;;;7.68;4.97;;;21.90;52.00;;;;;;5052449;28;20419;-70
2021/08/18 08:04:28;;;;;;;8.00;4.88;;;21.90;52.20;;;;;;5035497;28;20025;-70
2021/08/18 08:06:54;;;;;;;8.82;5.10;;;21.90;52.60;;;;;;5035225;28;20035;-70
2021/08/18 08:09:23;;;;;;;9.57;4.70;;;21.90;52.50;;;;;;5053200;28;20029;-70
2021/08/18 08:11:51;;;;;;;9.02;4.90;;;21.80;52.50;;;;;;5035285;28;20121;-71
2021/08/18 08:14:17;;;;;;;6.57;4.30;;;21.80;52.60;;;;;;5035259;28;20029;-71
2021/08/18 08:16:43;;;;;;;7.55;4.65;;;21.70;52.70;;;;;;5035244;28;20032;-70
2021/08/18 08:19:10;;;;;;;9.02;5.50;;;21.60;52.90;;;;;;5052815;28;20480;-70
2021/08/18 08:21:37;;;;;;;8.95;5.75;;;21.60;52.90;;;;;;5035157;28;20025;-71
2021/08/18 08:24:27;;;;;;;7.30;5.40;;;21.50;53.20;;;;;;5018662;28;20037;-71
2021/08/18 08:26:55;;;;;;;10.05;4.82;;;21.30;53.30;;;;;;5034098;28;20048;-71
2021/08/18 08:29:24;;;;;;;7.43;5.13;;;21.30;53.70;;;;;;5034642;28;20041;-71
2021/08/18 08:31:53;;;;;;;9.88;5.72;;;21.30;53.90;;;;;;5035076;28;20120;-71
2021/08/18 08:34:22;;;;;;;9.68;6.25;;;21.30;54.00;;;;;;5035115;28;20123;-72
2021/08/18 08:36:49;;;;;;;11.90;6.35;;;21.30;54.20;;;;;;5035060;28;20380;-70
2021/08/18 08:39:15;;;;;;;8.23;5.75;;;21.30;54.30;;;;;;5035039;28;20048;-71
2021/08/18 08:41:44;;;;;;;15.32;6.85;;;21.30;54.50;;;;;;5052798;28;20393;-71
2021/08/18 08:44:23;;;;;;;10.15;5.60;;;21.30;54.70;;;;;;5035247;28;20039;-72
2021/08/18 08:46:51;;;;;;;10.88;6.75;;;21.40;54.60;;;;;;5052554;28;20029;-71
2021/08/18 08:49:19;;;;;;;14.57;7.15;;;21.40;54.30;;;;;;5052855;28;20036;-70
2021/08/18 08:51:47;;;;;;;10.27;6.53;;;21.50;54.30;;;;;;5035008;28;20025;-70
2021/08/18 08:54:14;;;;;;;13.57;7.82;;;21.50;54.20;;;;;;5034918;28;20025;-71
2021/08/18 08:56:40;;;;;;;11.52;7.32;;;21.60;54.00;;;;;;5051525;28;20365;-71
2021/08/18 08:59:08;;;;;;;12.75;6.38;;;21.50;53.90;;;;;;5034806;28;20083;-71
2021/08/18 09:02:00;;;;;;;13.55;6.88;;;21.50;54.00;;;;;;5032311;28;20080;-72
2021/08/18 09:04:35;;;;;;;12.07;7.35;;;21.50;54.20;;;;;;5032569;28;20472;-72
2021/08/18 09:07:10;;;;;;;;;;;21.50;54.40;;;;;;5033365;28;20030;-71
2021/08/18 09:09:54;;;;;;;9.07;5.50;;;21.60;54.40;;;;;;5034982;28;19905;-70
2021/08/18 09:12:30;;;;;;;11.27;6.90;;;21.60;54.40;;;;;;5019799;28;20040;-71
2021/08/18 09:14:57;;;;;;;12.07;6.90;;;21.70;54.60;;;;;;5036150;28;20080;-71
2021/08/18 09:17:32;;;;;;;11.63;6.78;;;21.70;54.80;;;;;;5018561;28;20030;-71
2021/08/18 09:20:14;;;;;;;13.68;7.20;;;21.80;54.70;;;;;;5036141;28;20030;-71
2021/08/18 09:23:12;;;;;;;13.13;7.32;;;21.80;54.40;;;;;;5018293;28;20037;-71
2021/08/18 09:25:43;;;;;;;12.85;7.90;;;21.80;54.10;;;;;;4939762;29;20419;-72
2021/08/18 09:28:11;;;;;;;12.50;7.28;;;21.80;54.10;;;;;;4955775;29;20042;-71
2021/08/18 09:30:42;;;;;;;10.73;6.40;;;21.70;54.70;;;;;;4955797;29;20031;-71
2021/08/18 09:33:12;;;;;;;10.48;6.70;;;21.70;55.10;;;;;;4956011;29;20038;-71
2021/08/18 09:35:40;;;;;;;14.38;7.35;;;21.70;55.20;;;;;;4939486;29;20090;-71
2021/08/18 09:38:15;;;;;;;13.10;7.00;;;21.70;54.80;;;;;;4939402;29;20031;-71
2021/08/18 09:40:50;;;;;;;9.07;6.22;;;21.70;54.60;;;;;;4955200;29;20065;-71
2021/08/18 09:43:25;;;;;;;11.18;5.88;;;21.70;54.70;;;;;;4955457;29;20042;-71
2021/08/18 09:45:57;;;;;;;12.55;7.15;;;21.80;54.60;;;;;;4939533;29;20027;-71
2021/08/18 09:48:33;;;;;;;11.05;6.22;;;21.80;54.70;;;;;;4939062;29;20039;-71
2021/08/18 09:51:05;;;;;;;11.32;7.38;;;21.80;54.80;;;;;;4939221;29;20505;-71
2021/08/18 09:53:39;;;;;;;10.45;6.78;;;21.80;54.40;;;;;;4955175;29;20078;-71
2021/08/18 09:56:13;;;;;;;13.02;6.22;;;21.80;54.20;;;;;;4955294;29;20027;-70
2021/08/18 09:58:47;;;;;;;10.35;6.75;;;21.80;54.60;;;;;;4939270;29;20028;-71
2021/08/18 10:01:16;;;;;;;;;;;21.80;55.00;;;;;;4978924;28;20077;-71
2021/08/18 10:03:47;;;;;;;10.63;6.45;;;21.90;55.10;;;;;;5034898;28;19917;-70
2021/08/18 10:06:16;;;;;;;10.57;6.25;;;22.10;55.10;;;;;;5017313;28;20060;-72
2021/08/18 10:08:49;;;;;;;10.57;6.18;;;22.20;55.10;;;;;;5035085;28;20025;-71
2021/08/18 10:11:18;;;;;;;11.18;6.82;;;22.40;54.70;;;;;;5017473;28;20037;-70
2021/08/18 10:13:48;;;;;;;11.43;6.10;;;22.50;54.20;;;;;;5017324;28;20415;-69
2021/08/18 10:16:14;;;;;;;10.65;6.78;;;22.60;54.20;;;;;;5035171;28;20148;-71
2021/08/18 10:18:42;;;;;;;9.30;6.20;;;22.70;53.80;;;;;;5035060;28;20031;-71
2021/08/18 10:21:22;;;;;;;11.00;6.32;;;22.80;53.50;;;;;;5034664;28;20039;-71
2021/08/18 10:24:03;;;;;;;11.13;6.93;;;22.80;53.30;;;;;;5034994;28;20036;-71
2021/08/18 10:26:35;;;;;;;10.30;6.60;;;22.80;53.30;;;;;;5017338;28;20120;-71
2021/08/18 10:29:07;;;;;;;13.35;7.65;;;22.80;53.80;;;;;;5055650;22;20499;-91
2021/08/18 10:31:45;;;;;;;11.02;6.65;;;22.70;53.60;;;;;;5041444;28;20043;-92
2021/08/18 10:34:23;;;;;;;11.85;6.70;;;22.70;53.60;;;;;;5041861;28;20043;-94
2021/08/18 10:36:52;;;;;;;11.65;6.43;;;22.70;54.00;;;;;;5039259;28;20032;-91
2021/08/18 10:39:18;;;;;;;15.02;7.47;;;22.80;53.70;;;;;;5060773;28;20025;-92
2021/08/18 10:42:04;;;;;;;9.63;6.00;;;22.80;53.60;;;;;;5069243;28;20025;-92
2021/08/18 10:44:49;;;;;;;12.45;6.05;;;22.80;53.60;;;;;;5078223;28;20264;-92
2021/08/18 10:47:33;;;;;;;13.63;7.65;;;22.90;53.90;;;;;;5063609;28;20029;-91
2021/08/18 10:50:23;;;;;;;13.45;6.63;;;23.00;53.40;;;;;;5066003;28;20049;-94
2021/08/18 10:52:51;;;;;;;15.57;7.53;;;23.10;54.00;;;;;;5061942;28;20560;-92
2021/08/18 10:55:26;;;;;;;10.07;6.78;;;23.30;53.50;;;;;;5059200;28;20074;-92
2021/08/18 10:57:53;;;;;;;13.27;7.35;;;23.50;53.50;;;;;;5058776;28;20025;-93
2021/08/18 11:00:26;;;;;;;12.90;7.68;;;23.70;52.30;;;;;;5055760;28;20104;-91
2021/08/18 11:03:18;;;;;;;11.93;6.87;;;23.90;52.40;;;;;;5042395;28;20032;-91
2021/08/18 11:05:49;;;;;;;11.70;7.57;;;24.20;52.40;;;;;;5029611;28;20038;-92
2021/08/18 11:08:28;;;;;;;10.05;7.05;;;24.40;50.90;;;;;;5037118;28;20021;-92
2021/08/18 11:10:55;;;;;;;11.75;7.85;;;24.70;51.00;;;;;;5038659;28;20035;-92
2021/08/18 11:14:06;;;;;;;9.77;6.60;;;24.90;49.90;;;;;;5037053;28;20505;-92
2021/08/18 11:16:32;;;;;;;9.13;6.35;;;25.00;49.70;;;;;;5037376;28;20467;-92
2021/08/18 11:19:12;;;;;;;11.05;7.07;;;25.00;48.70;;;;;;5020851;28;20537;-92
2021/08/18 11:21:40;;;;;;;12.05;6.63;;;25.10;48.00;;;;;;5043797;28;20029;-92
2021/08/18 11:24:07;;;;;;;10.00;6.53;;;25.10;48.10;;;;;;5038327;28;20021;-93
2021/08/18 11:26:38;;;;;;;11.60;7.72;;;25.20;47.80;;;;;;5035673;28;20030;-92
2021/08/18 11:29:09;;;;;;;12.50;7.72;;;25.20;47.20;;;;;;5043472;28;20048;-92
2021/08/18 11:31:39;;;;;;;11.40;7.57;;;25.20;47.00;;;;;;5044099;28;20029;-93
2021/08/18 11:34:24;;;;;;;12.48;7.55;;;25.20;47.50;;;;;;5039653;28;20025;-92
2021/08/18 11:36:56;;;;;;;16.63;8.10;;;25.20;47.20;;;;;;5036776;28;20037;-92
2021/08/18 11:39:22;;;;;;;14.57;6.90;;;25.20;46.90;;;;;;5046907;28;20573;-92
2021/08/18 11:41:49;;;;;;;11.25;7.13;;;25.30;47.50;;;;;;5002101;28;20038;-93
2021/08/18 11:44:25;;;;;;;11.45;7.47;;;25.30;46.60;;;;;;5036288;28;20021;-90
2021/08/18 11:46:52;;;;;;;14.07;8.70;;;25.30;46.50;;;;;;5036200;28;20025;-91
2021/08/18 11:49:24;;;;;;;11.27;7.63;;;25.20;46.20;;;;;;5044859;28;20093;-93
2021/08/18 11:51:50;;;;;;;15.73;8.15;;;25.20;46.10;;;;;;5029600;28;20045;-92
2021/08/18 11:54:15;;;;;;;12.32;6.78;;;25.20;45.70;;;;;;5035844;28;20025;-92
2021/08/18 11:56:41;;;;;;;10.38;6.78;;;25.20;45.60;;;;;;5046348;28;20049;-92
2021/08/18 11:59:14;;;;;;;12.63;7.80;;;25.10;45.70;;;;;;5030159;28;20025;-91
2021/08/18 12:01:40;;;;;;;12.65;8.13;;;25.00;45.30;;;;;;5031223;28;20072;-93
2021/08/18 12:04:06;;;;;;;13.85;8.00;;;25.00;45.80;;;;;;5043278;28;20018;-93
2021/08/18 12:06:38;;;;;;;12.05;7.68;;;24.90;45.70;;;;;;5044754;28;20105;-92
2021/08/18 12:09:22;;;;;;;11.98;7.10;;;24.90;46.00;;;;;;5046972;28;20049;-91
2021/08/18 12:11:48;;;;;;;10.70;7.03;;;25.00;46.30;;;;;;5039499;28;20025;-92
2021/08/18 12:14:19;;;;;;;11.13;7.32;;;25.20;46.40;;;;;;5034384;28;20256;-93
2021/08/18 12:16:56;;;;;;;9.82;6.82;;;25.20;45.80;;;;;;5036914;28;20025;-92
2021/08/18 12:19:24;;;;;;;13.02;6.68;;;25.30;46.40;;;;;;5036076;28;20453;-92
2021/08/18 12:22:17;;;;;;;11.35;7.32;;;25.40;45.90;;;;;;5035845;28;20495;-91
2021/08/18 12:24:47;;;;;;;11.97;7.23;;;25.40;45.50;;;;;;4961935;28;20612;-90
2021/08/18 12:27:18;;;;;;;11.30;7.30;;;25.40;44.60;;;;;;4961747;28;20042;-92
2021/08/18 12:29:44;;;;;;;13.48;7.10;;;25.40;44.40;;;;;;4950259;28;20047;-93
2021/08/18 12:32:13;;;;;;;13.23;7.18;;;25.30;44.80;;;;;;4942603;29;20110;-92
2021/08/18 12:34:44;;;;;;;12.20;6.35;;;25.30;44.60;;;;;;4943344;29;20031;-91
2021/08/18 12:37:18;;;;;;;13.82;7.88;;;25.30;45.20;;;;;;4952364;28;20031;-90
2021/08/18 12:39:46;;;;;;;10.93;6.97;;;25.30;45.30;;;;;;4959023;28;20051;-92
2021/08/18 12:42:34;;;;;;;10.50;6.85;;;25.40;45.70;;;;;;4947435;29;20043;-92
2021/08/18 12:45:34;;;;;;;10.32;5.50;;;25.60;45.80;;;;;;4943704;29;20034;-91
2021/08/18 12:48:00;;;;;;;10.02;6.18;;;25.80;46.30;;;;;;4939706;29;20039;-92
2021/08/18 12:50:30;;;;;;;12.93;7.20;;;26.10;45.40;;;;;;4944425;29;20130;-92
2021/08/18 12:52:56;;;;;;;9.52;6.53;;;26.40;44.40;;;;;;4959417;29;20051;-93
2021/08/18 12:55:22;;;;;;;10.23;6.57;;;26.60;44.30;;;;;;4944407;29;20125;-92
2021/08/18 12:57:48;;;;;;;10.93;6.88;;;26.80;43.90;;;;;;4943101;29;20473;-92
2021/08/18 13:00:15;;;;;;;10.07;6.95;;;27.00;43.30;;;;;;4943323;29;20066;-93